Terminal Aerodrome Forecast
Issued by NWS

Home | Current Version | Previous Version | Graphics & Text | Print | Product List | Glossary On
Versions: 1 2 3 4 5 6 7 8 9 10 11 12
000
FTUS43 KOAX 230525
TAFCDR
TAF
KCDR 230525Z 2306/2406 19016G27KT P6SM SCT120
     FM231000 22010KT P6SM SCT120
     FM231500 33015KT P6SM SCT120
     FM231900 35013G24KT P6SM SCT120
     FM240100 05006KT P6SM SCT120=

USA.gov is the U.S. government's official web portal to all federal, state and local government web resources and services.